sensor_id;sensor_type;location;lat;lon;timestamp;pressure;altitude;pressure_sealevel;temperature;humidity
34983;BME280;21187;50.976;13.720;2024-02-21T00:04:06;98899.34;;;10.21;52.78
34983;BME280;21187;50.976;13.720;2024-02-21T00:09:08;98890.09;;;10.22;52.93
34983;BME280;21187;50.976;13.720;2024-02-21T00:14:11;98888.50;;;10.21;52.62
34983;BME280;21187;50.976;13.720;2024-02-21T00:19:13;98875.31;;;10.19;52.34
34983;BME280;21187;50.976;13.720;2024-02-21T00:24:16;98866.84;;;10.21;52.23
34983;BME280;21187;50.976;13.720;2024-02-21T00:29:18;98859.22;;;10.23;52.56
34983;BME280;21187;50.976;13.720;2024-02-21T00:34:20;98858.72;;;10.21;52.11
34983;BME280;21187;50.976;13.720;2024-02-21T00:39:22;98854.44;;;10.20;52.20
34983;BME280;21187;50.976;13.720;2024-02-21T00:44:24;98845.06;;;10.17;52.39
34983;BME280;21187;50.976;13.720;2024-02-21T00:49:26;98853.31;;;10.21;51.94
34983;BME280;21187;50.976;13.720;2024-02-21T00:54:28;98849.16;;;10.23;51.84
34983;BME280;21187;50.976;13.720;2024-02-21T00:59:47;98836.41;;;10.24;52.09
34983;BME280;21187;50.976;13.720;2024-02-21T01:04:49;98837.56;;;10.23;51.93
34983;BME280;21187;50.976;13.720;2024-02-21T01:09:51;98828.47;;;10.19;51.64
34983;BME280;21187;50.976;13.720;2024-02-21T01:14:54;98820.38;;;10.19;52.41
34983;BME280;21187;50.976;13.720;2024-02-21T01:19:56;98813.38;;;10.18;52.15
34983;BME280;21187;50.976;13.720;2024-02-21T01:24:58;98797.16;;;10.18;52.02
34983;BME280;21187;50.976;13.720;2024-02-21T01:30:00;98796.47;;;10.21;52.17
34983;BME280;21187;50.976;13.720;2024-02-21T01:35:02;98786.78;;;10.20;51.99
34983;BME280;21187;50.976;13.720;2024-02-21T01:40:05;98770.53;;;10.20;51.75
34983;BME280;21187;50.976;13.720;2024-02-21T01:45:07;98764.00;;;10.21;52.15
34983;BME280;21187;50.976;13.720;2024-02-21T01:50:09;98743.03;;;10.18;52.19
34983;BME280;21187;50.976;13.720;2024-02-21T01:55:13;98742.88;;;10.14;51.96
34983;BME280;21187;50.976;13.720;2024-02-21T02:00:16;98740.03;;;10.10;52.42
34983;BME280;21187;50.976;13.720;2024-02-21T02:05:18;98742.50;;;10.03;52.59
34983;BME280;21187;50.976;13.720;2024-02-21T02:10:22;98735.22;;;9.95;52.06
34983;BME280;21187;50.976;13.720;2024-02-21T02:15:24;98737.50;;;9.93;52.46
34983;BME280;21187;50.976;13.720;2024-02-21T02:20:26;98734.44;;;9.94;52.50
34983;BME280;21187;50.976;13.720;2024-02-21T02:25:28;98726.66;;;9.93;52.44
34983;BME280;21187;50.976;13.720;2024-02-21T02:30:34;98725.88;;;9.92;52.83
34983;BME280;21187;50.976;13.720;2024-02-21T02:35:37;98719.00;;;9.95;52.19
34983;BME280;21187;50.976;13.720;2024-02-21T02:40:40;98725.34;;;9.99;52.89
34983;BME280;21187;50.976;13.720;2024-02-21T02:45:42;98718.34;;;9.98;52.69
34983;BME280;21187;50.976;13.720;2024-02-21T02:50:44;98712.13;;;9.97;52.86
34983;BME280;21187;50.976;13.720;2024-02-21T02:55:47;98707.41;;;9.94;52.95
34983;BME280;21187;50.976;13.720;2024-02-21T03:00:49;98695.78;;;9.94;52.30
34983;BME280;21187;50.976;13.720;2024-02-21T03:05:51;98698.03;;;9.92;52.80
34983;BME280;21187;50.976;13.720;2024-02-21T03:10:53;98695.78;;;9.94;52.91
34983;BME280;21187;50.976;13.720;2024-02-21T03:15:55;98693.28;;;9.89;52.58
34983;BME280;21187;50.976;13.720;2024-02-21T03:20:57;98688.78;;;9.93;52.36
34983;BME280;21187;50.976;13.720;2024-02-21T03:26:00;98682.06;;;9.99;52.71
34983;BME280;21187;50.976;13.720;2024-02-21T03:31:02;98685.06;;;9.97;53.02
34983;BME280;21187;50.976;13.720;2024-02-21T03:36:04;98682.25;;;9.94;52.37
34983;BME280;21187;50.976;13.720;2024-02-21T03:41:06;98685.41;;;9.96;52.87
34983;BME280;21187;50.976;13.720;2024-02-21T03:46:08;98680.69;;;9.93;52.68
34983;BME280;21187;50.976;13.720;2024-02-21T03:51:10;98681.00;;;9.91;52.21
34983;BME280;21187;50.976;13.720;2024-02-21T03:56:12;98680.22;;;9.91;52.24
34983;BME280;21187;50.976;13.720;2024-02-21T04:01:15;98675.28;;;9.93;52.52
34983;BME280;21187;50.976;13.720;2024-02-21T04:06:17;98672.56;;;9.93;52.29
34983;BME280;21187;50.976;13.720;2024-02-21T04:11:19;98672.56;;;9.93;52.26
34983;BME280;21187;50.976;13.720;2024-02-21T04:16:21;98671.25;;;9.99;52.59
34983;BME280;21187;50.976;13.720;2024-02-21T04:21:23;98673.72;;;10.04;52.14
34983;BME280;21187;50.976;13.720;2024-02-21T04:26:25;98664.69;;;10.00;51.91
34983;BME280;21187;50.976;13.720;2024-02-21T04:31:27;98653.22;;;10.03;52.36
34983;BME280;21187;50.976;13.720;2024-02-21T04:36:29;98651.66;;;10.14;51.83
34983;BME280;21187;50.976;13.720;2024-02-21T04:41:31;98648.28;;;10.18;51.84
34983;BME280;21187;50.976;13.720;2024-02-21T04:46:33;98655.47;;;10.13;51.75
34983;BME280;21187;50.976;13.720;2024-02-21T04:51:35;98660.78;;;10.10;52.21
34983;BME280;21187;50.976;13.720;2024-02-21T04:56:38;98659.06;;;10.05;51.51
34983;BME280;21187;50.976;13.720;2024-02-21T05:01:40;98648.25;;;10.05;52.05
34983;BME280;21187;50.976;13.720;2024-02-21T05:06:42;98646.66;;;10.04;52.20
34983;BME280;21187;50.976;13.720;2024-02-21T05:11:44;98632.69;;;10.02;52.21
34983;BME280;21187;50.976;13.720;2024-02-21T05:16:46;98629.75;;;10.07;52.32
34983;BME280;21187;50.976;13.720;2024-02-21T05:21:48;98639.00;;;10.06;51.75
34983;BME280;21187;50.976;13.720;2024-02-21T05:26:50;98646.41;;;9.97;51.92
34983;BME280;21187;50.976;13.720;2024-02-21T05:36:56;98625.69;;;10.01;52.62
34983;BME280;21187;50.976;13.720;2024-02-21T05:41:59;98620.13;;;9.97;52.61
34983;BME280;21187;50.976;13.720;2024-02-21T05:47:01;98621.59;;;9.95;52.21
34983;BME280;21187;50.976;13.720;2024-02-21T05:52:04;98612.34;;;9.96;52.41
34983;BME280;21187;50.976;13.720;2024-02-21T05:57:08;98609.44;;;10.01;52.69
34983;BME280;21187;50.976;13.720;2024-02-21T06:02:10;98604.03;;;10.01;52.37
34983;BME280;21187;50.976;13.720;2024-02-21T06:07:13;98601.53;;;9.96;52.43
34983;BME280;21187;50.976;13.720;2024-02-21T06:12:15;98589.59;;;9.97;52.63
34983;BME280;21187;50.976;13.720;2024-02-21T06:17:19;98588.47;;;9.98;52.67
34983;BME280;21187;50.976;13.720;2024-02-21T06:22:21;98572.69;;;10.00;53.15
34983;BME280;21187;50.976;13.720;2024-02-21T06:27:23;98562.19;;;9.98;52.87
34983;BME280;21187;50.976;13.720;2024-02-21T06:32:26;98555.09;;;9.94;53.47
34983;BME280;21187;50.976;13.720;2024-02-21T06:37:29;98558.94;;;9.93;53.49
34983;BME280;21187;50.976;13.720;2024-02-21T06:42:32;98552.84;;;9.96;53.18
34983;BME280;21187;50.976;13.720;2024-02-21T06:47:34;98554.44;;;9.97;53.55
34983;BME280;21187;50.976;13.720;2024-02-21T06:52:37;98551.63;;;10.06;52.75
34983;BME280;21187;50.976;13.720;2024-02-21T06:57:39;98567.09;;;10.18;52.83
34983;BME280;21187;50.976;13.720;2024-02-21T07:02:41;98575.22;;;10.18;52.67
34983;BME280;21187;50.976;13.720;2024-02-21T07:07:43;98571.56;;;10.13;53.32
34983;BME280;21187;50.976;13.720;2024-02-21T07:12:45;98566.63;;;10.15;52.86
34983;BME280;21187;50.976;13.720;2024-02-21T07:17:48;98561.69;;;10.18;53.31
34983;BME280;21187;50.976;13.720;2024-02-21T07:22:50;98566.88;;;10.23;52.98
34983;BME280;21187;50.976;13.720;2024-02-21T07:27:52;98575.38;;;10.00;53.60
34983;BME280;21187;50.976;13.720;2024-02-21T07:32:54;98571.69;;;10.05;53.83
34983;BME280;21187;50.976;13.720;2024-02-21T07:37:56;98585.78;;;10.10;53.71
34983;BME280;21187;50.976;13.720;2024-02-21T07:42:58;98580.72;;;10.09;53.31
34983;BME280;21187;50.976;13.720;2024-02-21T07:48:01;98567.78;;;10.39;52.73
34983;BME280;21187;50.976;13.720;2024-02-21T07:53:04;98569.84;;;10.55;52.73
34983;BME280;21187;50.976;13.720;2024-02-21T07:58:06;98559.66;;;10.64;52.32
34983;BME280;21187;50.976;13.720;2024-02-21T08:03:08;98548.59;;;10.69;52.12
34983;BME280;21187;50.976;13.720;2024-02-21T08:08:10;98539.91;;;10.76;52.25
34983;BME280;21187;50.976;13.720;2024-02-21T08:13:12;98529.94;;;10.80;51.80
34983;BME280;21187;50.976;13.720;2024-02-21T08:18:14;98544.03;;;10.86;51.95
34983;BME280;21187;50.976;13.720;2024-02-21T08:23:18;98558.94;;;10.92;51.69
34983;BME280;21187;50.976;13.720;2024-02-21T08:28:20;98577.63;;;11.09;51.51
34983;BME280;21187;50.976;13.720;2024-02-21T08:33:22;98567.91;;;11.08;51.30
34983;BME280;21187;50.976;13.720;2024-02-21T08:38:27;98549.66;;;11.05;51.14
34983;BME280;21187;50.976;13.720;2024-02-21T08:43:28;98537.44;;;11.11;51.25
34983;BME280;21187;50.976;13.720;2024-02-21T08:48:32;98537.78;;;11.38;50.90
34983;BME280;21187;50.976;13.720;2024-02-21T08:53:34;98539.06;;;11.57;50.68
34983;BME280;21187;50.976;13.720;2024-02-21T08:58:36;98532.59;;;11.61;50.50
34983;BME280;21187;50.976;13.720;2024-02-21T09:03:39;98527.31;;;11.53;49.88
34983;BME280;21187;50.976;13.720;2024-02-21T09:08:44;98526.13;;;11.66;50.13
34983;BME280;21187;50.976;13.720;2024-02-21T09:13:46;98528.94;;;11.86;49.98
34983;BME280;21187;50.976;13.720;2024-02-21T09:18:48;98550.91;;;11.80;49.61
34983;BME280;21187;50.976;13.720;2024-02-21T09:23:50;98543.97;;;11.67;49.88
34983;BME280;21187;50.976;13.720;2024-02-21T09:28:52;98544.69;;;11.64;49.77
34983;BME280;21187;50.976;13.720;2024-02-21T09:33:54;98550.78;;;11.61;50.10
34983;BME280;21187;50.976;13.720;2024-02-21T09:38:56;98557.78;;;11.62;49.83
34983;BME280;21187;50.976;13.720;2024-02-21T09:43:58;98552.34;;;11.62;49.72
34983;BME280;21187;50.976;13.720;2024-02-21T09:54:13;98550.09;;;11.64;50.06
34983;BME280;21187;50.976;13.720;2024-02-21T09:59:18;98550.78;;;11.61;50.28
34983;BME280;21187;50.976;13.720;2024-02-21T10:04:20;98548.69;;;11.70;49.88
34983;BME280;21187;50.976;13.720;2024-02-21T10:09:27;98534.88;;;11.75;49.92
34983;BME280;21187;50.976;13.720;2024-02-21T10:14:30;98542.59;;;11.73;49.82
34983;BME280;21187;50.976;13.720;2024-02-21T10:19:32;98538.28;;;11.72;49.71
34983;BME280;21187;50.976;13.720;2024-02-21T10:24:35;98536.34;;;11.73;49.72
34983;BME280;21187;50.976;13.720;2024-02-21T10:29:40;98531.75;;;11.73;49.92
34983;BME280;21187;50.976;13.720;2024-02-21T10:34:43;98536.81;;;11.75;49.39
34983;BME280;21187;50.976;13.720;2024-02-21T10:39:47;98533.13;;;11.67;49.30
34983;BME280;21187;50.976;13.720;2024-02-21T10:44:51;98523.84;;;11.68;49.53
34983;BME280;21187;50.976;13.720;2024-02-21T10:50:02;98526.13;;;11.66;49.35
34983;BME280;21187;50.976;13.720;2024-02-21T10:55:09;98512.81;;;11.61;49.40
34983;BME280;21187;50.976;13.720;2024-02-21T11:00:14;98517.53;;;11.64;49.28
34983;BME280;21187;50.976;13.720;2024-02-21T11:05:19;98509.47;;;11.68;49.33
34983;BME280;21187;50.976;13.720;2024-02-21T11:10:25;98503.03;;;11.72;49.68
34983;BME280;21187;50.976;13.720;2024-02-21T11:15:27;98498.47;;;11.76;49.54
34983;BME280;21187;50.976;13.720;2024-02-21T11:20:34;98498.28;;;11.69;49.84
34983;BME280;21187;50.976;13.720;2024-02-21T11:25:37;98483.94;;;11.69;50.06
34983;BME280;21187;50.976;13.720;2024-02-21T11:30:39;98477.28;;;11.66;49.73
34983;BME280;21187;50.976;13.720;2024-02-21T11:35:41;98466.25;;;11.59;49.90
34983;BME280;21187;50.976;13.720;2024-02-21T11:40:46;98444.56;;;11.59;50.06
34983;BME280;21187;50.976;13.720;2024-02-21T11:45:49;98436.44;;;11.59;50.34
34983;BME280;21187;50.976;13.720;2024-02-21T11:50:54;98436.31;;;11.71;50.52
34983;BME280;21187;50.976;13.720;2024-02-21T11:55:57;98427.41;;;11.87;50.06
34983;BME280;21187;50.976;13.720;2024-02-21T12:00:59;98416.78;;;12.13;49.90
34983;BME280;21187;50.976;13.720;2024-02-21T12:06:01;98406.09;;;12.40;49.30
34983;BME280;21187;50.976;13.720;2024-02-21T12:11:23;98384.38;;;12.79;48.83
34983;BME280;21187;50.976;13.720;2024-02-21T12:16:27;98364.84;;;13.17;48.35
34983;BME280;21187;50.976;13.720;2024-02-21T12:21:33;98365.50;;;13.53;47.67
34983;BME280;21187;50.976;13.720;2024-02-21T12:26:38;98356.28;;;13.88;47.15
34983;BME280;21187;50.976;13.720;2024-02-21T12:31:40;98340.78;;;14.19;45.93
34983;BME280;21187;50.976;13.720;2024-02-21T12:36:45;98325.56;;;14.18;45.18
34983;BME280;21187;50.976;13.720;2024-02-21T12:41:49;98309.09;;;14.37;45.55
34983;BME280;21187;50.976;13.720;2024-02-21T12:46:51;98317.09;;;14.60;44.95
34983;BME280;21187;50.976;13.720;2024-02-21T12:51:56;98304.78;;;14.70;44.55
34983;BME280;21187;50.976;13.720;2024-02-21T12:56:58;98294.63;;;14.67;45.04
34983;BME280;21187;50.976;13.720;2024-02-21T13:02:04;98277.72;;;14.92;44.46
34983;BME280;21187;50.976;13.720;2024-02-21T13:07:06;98273.19;;;15.10;44.04
34983;BME280;21187;50.976;13.720;2024-02-21T13:12:09;98267.97;;;15.39;43.71
34983;BME280;21187;50.976;13.720;2024-02-21T13:17:11;98261.09;;;15.60;43.62
34983;BME280;21187;50.976;13.720;2024-02-21T13:22:13;98243.28;;;15.80;42.99
34983;BME280;21187;50.976;13.720;2024-02-21T13:27:16;98245.34;;;16.05;43.02
34983;BME280;21187;50.976;13.720;2024-02-21T13:32:18;98228.66;;;16.43;42.09
34983;BME280;21187;50.976;13.720;2024-02-21T13:37:20;98226.72;;;16.51;41.55
34983;BME280;21187;50.976;13.720;2024-02-21T13:42:23;98210.34;;;16.72;40.21
34983;BME280;21187;50.976;13.720;2024-02-21T13:47:28;98202.13;;;17.30;39.79
34983;BME280;21187;50.976;13.720;2024-02-21T13:52:31;98185.56;;;19.07;37.44
34983;BME280;21187;50.976;13.720;2024-02-21T13:57:33;98176.09;;;20.16;35.49
34983;BME280;21187;50.976;13.720;2024-02-21T14:02:35;98168.03;;;20.56;34.38
34983;BME280;21187;50.976;13.720;2024-02-21T14:07:38;98154.97;;;21.31;33.51
34983;BME280;21187;50.976;13.720;2024-02-21T14:12:40;98150.97;;;21.96;32.69
34983;BME280;21187;50.976;13.720;2024-02-21T14:17:42;98140.69;;;22.66;32.62
34983;BME280;21187;50.976;13.720;2024-02-21T14:22:44;98137.91;;;22.99;30.92
34983;BME280;21187;50.976;13.720;2024-02-21T14:27:46;98122.53;;;21.99;30.96
34983;BME280;21187;50.976;13.720;2024-02-21T14:32:48;98119.81;;;21.79;31.79
34983;BME280;21187;50.976;13.720;2024-02-21T14:37:51;98123.91;;;21.51;31.49
34983;BME280;21187;50.976;13.720;2024-02-21T14:42:54;98119.53;;;21.33;30.79
34983;BME280;21187;50.976;13.720;2024-02-21T14:47:56;98113.59;;;20.71;30.84
34983;BME280;21187;50.976;13.720;2024-02-21T14:52:58;98114.75;;;19.26;31.75
34983;BME280;21187;50.976;13.720;2024-02-21T14:58:00;98114.19;;;18.09;32.81
34983;BME280;21187;50.976;13.720;2024-02-21T15:03:03;98102.81;;;17.29;33.23
34983;BME280;21187;50.976;13.720;2024-02-21T15:08:05;98109.13;;;17.08;33.82
34983;BME280;21187;50.976;13.720;2024-02-21T15:13:09;98100.97;;;16.65;34.22
34983;BME280;21187;50.976;13.720;2024-02-21T15:18:11;98087.69;;;16.31;34.63
34983;BME280;21187;50.976;13.720;2024-02-21T15:23:13;98088.47;;;16.17;35.29
34983;BME280;21187;50.976;13.720;2024-02-21T15:28:15;98096.28;;;16.08;35.42
34983;BME280;21187;50.976;13.720;2024-02-21T15:33:17;98085.69;;;15.95;35.64
34983;BME280;21187;50.976;13.720;2024-02-21T15:38:19;98073.94;;;15.70;35.91
34983;BME280;21187;50.976;13.720;2024-02-21T15:43:21;98066.88;;;15.58;36.28
34983;BME280;21187;50.976;13.720;2024-02-21T15:48:26;98059.81;;;15.42;36.79
34983;BME280;21187;50.976;13.720;2024-02-21T15:53:28;98042.66;;;15.45;36.98
34983;BME280;21187;50.976;13.720;2024-02-21T15:58:32;98023.97;;;15.51;36.99
34983;BME280;21187;50.976;13.720;2024-02-21T16:03:34;98018.13;;;15.45;37.07
34983;BME280;21187;50.976;13.720;2024-02-21T16:08:48;97997.41;;;15.30;37.26
34983;BME280;21187;50.976;13.720;2024-02-21T16:13:52;97999.31;;;15.19;38.02
34983;BME280;21187;50.976;13.720;2024-02-21T16:18:55;97989.53;;;15.03;38.43
34983;BME280;21187;50.976;13.720;2024-02-21T16:23:57;97982.41;;;14.80;39.11
34983;BME280;21187;50.976;13.720;2024-02-21T16:28:59;97965.97;;;14.66;39.77
34983;BME280;21187;50.976;13.720;2024-02-21T16:34:02;97969.81;;;14.58;40.04
34983;BME280;21187;50.976;13.720;2024-02-21T16:39:04;97965.13;;;14.55;40.20
34983;BME280;21187;50.976;13.720;2024-02-21T16:44:09;97963.50;;;14.43;40.61
34983;BME280;21187;50.976;13.720;2024-02-21T16:49:11;97967.31;;;14.31;40.75
34983;BME280;21187;50.976;13.720;2024-02-21T16:54:22;97950.47;;;14.14;41.58
34983;BME280;21187;50.976;13.720;2024-02-21T16:59:24;97948.06;;;14.02;41.63
34983;BME280;21187;50.976;13.720;2024-02-21T17:04:26;97946.03;;;13.92;41.79
34983;BME280;21187;50.976;13.720;2024-02-21T17:09:29;97928.50;;;13.86;41.82
34983;BME280;21187;50.976;13.720;2024-02-21T17:14:33;97922.19;;;13.74;41.89
34983;BME280;21187;50.976;13.720;2024-02-21T17:19:35;97917.03;;;13.62;41.92
34983;BME280;21187;50.976;13.720;2024-02-21T17:24:39;97913.44;;;13.51;42.10
34983;BME280;21187;50.976;13.720;2024-02-21T17:29:41;97916.66;;;13.26;42.27
34983;BME280;21187;50.976;13.720;2024-02-21T17:34:43;97911.03;;;13.04;42.54
34983;BME280;21187;50.976;13.720;2024-02-21T17:39:46;97909.94;;;12.78;43.04
34983;BME280;21187;50.976;13.720;2024-02-21T17:44:48;97905.78;;;12.54;43.12
34983;BME280;21187;50.976;13.720;2024-02-21T17:49:50;97881.63;;;12.45;43.21
34983;BME280;21187;50.976;13.720;2024-02-21T17:54:52;97887.34;;;12.37;42.86
34983;BME280;21187;50.976;13.720;2024-02-21T17:59:55;97874.81;;;12.28;41.72
34983;BME280;21187;50.976;13.720;2024-02-21T18:04:57;97874.09;;;12.31;40.77
34983;BME280;21187;50.976;13.720;2024-02-21T18:10:00;97859.06;;;12.41;40.59
34983;BME280;21187;50.976;13.720;2024-02-21T18:15:03;97846.72;;;12.47;40.21
34983;BME280;21187;50.976;13.720;2024-02-21T18:20:05;97844.41;;;12.49;39.33
34983;BME280;21187;50.976;13.720;2024-02-21T18:25:10;97833.53;;;12.49;38.93
34983;BME280;21187;50.976;13.720;2024-02-21T18:30:12;97824.25;;;12.51;38.11
34983;BME280;21187;50.976;13.720;2024-02-21T18:35:15;97821.97;;;12.53;38.06
34983;BME280;21187;50.976;13.720;2024-02-21T18:40:17;97820.44;;;12.59;38.29
34983;BME280;21187;50.976;13.720;2024-02-21T18:45:19;97806.59;;;12.68;38.21
34983;BME280;21187;50.976;13.720;2024-02-21T18:50:21;97795.00;;;12.74;38.47
34983;BME280;21187;50.976;13.720;2024-02-21T18:55:25;97785.72;;;12.75;38.32
34983;BME280;21187;50.976;13.720;2024-02-21T19:00:27;97782.56;;;12.73;38.61
34983;BME280;21187;50.976;13.720;2024-02-21T19:05:29;97786.47;;;12.72;38.64
34983;BME280;21187;50.976;13.720;2024-02-21T19:10:32;97773.22;;;12.67;38.63
34983;BME280;21187;50.976;13.720;2024-02-21T19:15:34;97767.69;;;12.60;38.77
34983;BME280;21187;50.976;13.720;2024-02-21T19:20:39;97755.63;;;12.54;38.34
34983;BME280;21187;50.976;13.720;2024-02-21T19:25:41;97745.19;;;12.59;38.20
34983;BME280;21187;50.976;13.720;2024-02-21T19:30:44;97728.84;;;12.56;37.82
34983;BME280;21187;50.976;13.720;2024-02-21T19:35:47;97723.41;;;12.56;37.05
34983;BME280;21187;50.976;13.720;2024-02-21T19:40:49;97711.78;;;12.59;36.14
34983;BME280;21187;50.976;13.720;2024-02-21T19:45:53;97690.53;;;12.64;35.82
34983;BME280;21187;50.976;13.720;2024-02-21T19:50:55;97681.66;;;12.71;35.92
34983;BME280;21187;50.976;13.720;2024-02-21T19:55:59;97651.81;;;12.78;36.07
34983;BME280;21187;50.976;13.720;2024-02-21T20:01:02;97642.13;;;12.81;35.33
34983;BME280;21187;50.976;13.720;2024-02-21T20:06:08;97646.81;;;12.88;35.22
34983;BME280;21187;50.976;13.720;2024-02-21T20:11:10;97632.50;;;12.91;34.78
34983;BME280;21187;50.976;13.720;2024-02-21T20:16:13;97625.53;;;12.97;34.87
34983;BME280;21187;50.976;13.720;2024-02-21T20:21:15;97617.44;;;13.04;35.04
34983;BME280;21187;50.976;13.720;2024-02-21T20:26:17;97608.94;;;13.09;34.98
34983;BME280;21187;50.976;13.720;2024-02-21T20:31:19;97612.81;;;13.15;35.04
34983;BME280;21187;50.976;13.720;2024-02-21T20:36:23;97622.53;;;13.17;35.47
34983;BME280;21187;50.976;13.720;2024-02-21T20:41:25;97621.38;;;13.18;35.66
34983;BME280;21187;50.976;13.720;2024-02-21T20:46:27;97605.84;;;13.18;35.89
34983;BME280;21187;50.976;13.720;2024-02-21T20:51:29;97608.22;;;13.23;36.07
34983;BME280;21187;50.976;13.720;2024-02-21T20:56:30;97607.06;;;13.28;36.15
34983;BME280;21187;50.976;13.720;2024-02-21T21:01:32;97603.94;;;13.19;36.11
34983;BME280;21187;50.976;13.720;2024-02-21T21:06:45;97606.59;;;13.08;36.50
34983;BME280;21187;50.976;13.720;2024-02-21T21:11:47;97608.50;;;13.07;36.82
34983;BME280;21187;50.976;13.720;2024-02-21T21:16:49;97587.19;;;13.09;36.71
34983;BME280;21187;50.976;13.720;2024-02-21T21:21:51;97586.75;;;13.07;36.82
34983;BME280;21187;50.976;13.720;2024-02-21T21:26:54;97577.03;;;12.99;36.94
34983;BME280;21187;50.976;13.720;2024-02-21T21:31:56;97556.03;;;12.92;36.88
34983;BME280;21187;50.976;13.720;2024-02-21T21:36:58;97551.31;;;12.89;36.52
34983;BME280;21187;50.976;13.720;2024-02-21T21:42:00;97545.50;;;12.87;36.24
34983;BME280;21187;50.976;13.720;2024-02-21T21:47:05;97538.13;;;12.88;35.62
34983;BME280;21187;50.976;13.720;2024-02-21T21:52:07;97544.38;;;12.95;35.23
34983;BME280;21187;50.976;13.720;2024-02-21T21:57:09;97532.00;;;13.02;34.66
34983;BME280;21187;50.976;13.720;2024-02-21T22:02:11;97538.22;;;13.06;34.11
34983;BME280;21187;50.976;13.720;2024-02-21T22:07:13;97527.38;;;13.09;33.71
34983;BME280;21187;50.976;13.720;2024-02-21T22:12:16;97522.31;;;13.11;33.41
34983;BME280;21187;50.976;13.720;2024-02-21T22:17:17;97526.63;;;13.16;32.86
34983;BME280;21187;50.976;13.720;2024-02-21T22:22:20;97521.19;;;13.23;32.22
34983;BME280;21187;50.976;13.720;2024-02-21T22:27:22;97520.84;;;13.32;31.67
34983;BME280;21187;50.976;13.720;2024-02-21T22:32:26;97515.84;;;13.41;31.97
34983;BME280;21187;50.976;13.720;2024-02-21T22:37:28;97510.03;;;13.43;31.25
34983;BME280;21187;50.976;13.720;2024-02-21T22:42:30;97515.88;;;13.45;30.83
34983;BME280;21187;50.976;13.720;2024-02-21T22:47:31;97504.97;;;13.48;30.32
34983;BME280;21187;50.976;13.720;2024-02-21T22:52:33;97494.91;;;13.53;30.17
34983;BME280;21187;50.976;13.720;2024-02-21T22:57:36;97490.25;;;13.57;30.00
34983;BME280;21187;50.976;13.720;2024-02-21T23:02:39;97491.03;;;13.68;29.48
34983;BME280;21187;50.976;13.720;2024-02-21T23:07:41;97482.88;;;13.75;29.94
34983;BME280;21187;50.976;13.720;2024-02-21T23:12:43;97478.97;;;13.76;29.94
34983;BME280;21187;50.976;13.720;2024-02-21T23:17:45;97470.03;;;13.76;30.37
34983;BME280;21187;50.976;13.720;2024-02-21T23:22:48;97463.84;;;13.75;31.08
34983;BME280;21187;50.976;13.720;2024-02-21T23:27:50;97470.06;;;13.79;31.38
34983;BME280;21187;50.976;13.720;2024-02-21T23:32:52;97458.38;;;13.82;32.06
34983;BME280;21187;50.976;13.720;2024-02-21T23:37:54;97451.38;;;13.89;32.53
34983;BME280;21187;50.976;13.720;2024-02-21T23:42:56;97438.16;;;13.94;32.61
34983;BME280;21187;50.976;13.720;2024-02-21T23:48:00;97429.59;;;14.00;33.13
34983;BME280;21187;50.976;13.720;2024-02-21T23:53:03;97417.56;;;14.01;33.17
34983;BME280;21187;50.976;13.720;2024-02-21T23:58:05;97402.38;;;13.96;33.30
